Time,TemperatureF,DewpointF,PressureIn,WindDirection,WindDirectionDegrees,WindSpeedMPH,WindSpeedGustMPH,Humidity,HourlyPrecipIn,Conditions,Clouds,dailyrainin,SoftwareType,DateUTC
2013-10-05 00:01:00,75.6,68.0,29.92,North,0,0.0,0.0,77,0.00,,,0.00,WUHU21623XXSP,2013-10-05 05:01:00,
2013-10-05 00:06:00,75.6,67.9,29.93,North,0,0.0,0.0,77,0.00,,,0.00,WUHU21623XXSP,2013-10-05 05:06:00,
2013-10-05 00:11:00,75.4,68.1,29.93,North,0,0.0,0.0,78,0.00,,,0.00,WUHU21623XXSP,2013-10-05 05:11:00,
2013-10-05 00:16:00,75.4,68.1,29.93,North,0,0.0,0.0,78,0.00,,,0.00,WUHU21623XXSP,2013-10-05 05:16:00,
2013-10-05 00:21:00,75.6,68.3,29.93,North,0,0.0,0.0,78,0.00,,,0.00,WUHU21623XXSP,2013-10-05 05:21:00,
2013-10-05 00:26:00,75.7,68.4,29.93,North,0,0.0,0.0,79,0.00,,,0.00,WUHU21623XXSP,2013-10-05 05:26:00,
2013-10-05 00:31:00,75.9,69.0,29.92,North,0,0.0,0.0,78,0.00,,,0.00,WUHU21623XXSP,2013-10-05 05:31:00,
2013-10-05 00:36:00,76.1,68.8,29.93,North,0,0.0,0.0,78,0.00,,,0.00,WUHU21623XXSP,2013-10-05 05:36:00,
2013-10-05 00:41:00,76.3,68.9,29.93,North,0,0.0,0.0,78,0.00,,,0.00,WUHU21623XXSP,2013-10-05 05:41:00,
2013-10-05 00:46:00,76.1,68.8,29.92,North,0,0.0,0.0,78,0.00,,,0.00,WUHU21623XXSP,2013-10-05 05:46:00,
2013-10-05 00:51:00,75.9,68.6,29.92,North,0,0.0,0.0,78,0.00,,,0.00,WUHU21623XXSP,2013-10-05 05:51:00,
2013-10-05 00:56:00,75.9,68.6,29.92,North,0,0.0,0.0,78,0.00,,,0.00,WUHU21623XXSP,2013-10-05 05:56:00,
2013-10-05 01:01:00,75.7,68.4,29.92,North,0,0.0,0.0,78,0.00,,,0.00,WUHU21623XXSP,2013-10-05 06:01:00,
2013-10-05 01:06:00,75.7,68.8,29.93,North,0,0.0,0.0,79,0.00,,,0.00,WUHU21623XXSP,2013-10-05 06:06:00,
2013-10-05 01:11:00,75.6,68.6,29.93,North,0,0.0,0.0,79,0.00,,,0.00,WUHU21623XXSP,2013-10-05 06:11:00,
2013-10-05 01:16:00,75.6,68.6,29.92,North,0,0.0,0.0,79,0.00,,,0.00,WUHU21623XXSP,2013-10-05 06:16:00,
2013-10-05 01:21:00,75.6,68.6,29.92,North,0,0.0,0.0,79,0.00,,,0.00,WUHU21623XXSP,2013-10-05 06:21:00,
2013-10-05 01:26:00,75.6,68.6,29.92,North,0,0.0,0.0,79,0.00,,,0.00,WUHU21623XXSP,2013-10-05 06:26:00,
2013-10-05 01:31:00,75.7,68.8,29.93,North,0,0.0,0.0,79,0.00,,,0.00,WUHU21623XXSP,2013-10-05 06:31:00,
2013-10-05 01:36:00,75.6,68.6,29.93,North,0,0.0,0.0,79,0.00,,,0.00,WUHU21623XXSP,2013-10-05 06:36:00,
2013-10-05 01:41:00,75.6,68.6,29.93,North,0,0.0,0.0,79,0.00,,,0.00,WUHU21623XXSP,2013-10-05 06:41:00,
2013-10-05 01:46:00,75.4,68.6,29.93,North,0,0.0,0.0,79,0.00,,,0.00,WUHU21623XXSP,2013-10-05 06:46:00,
2013-10-05 01:51:00,75.4,68.5,29.93,North,0,0.0,0.0,79,0.00,,,0.00,WUHU21623XXSP,2013-10-05 06:51:00,
2013-10-05 01:56:00,75.0,68.1,29.93,North,0,0.0,0.0,79,0.00,,,0.00,WUHU21623XXSP,2013-10-05 06:56:00,
2013-10-05 02:01:00,74.8,68.0,29.93,North,0,0.0,0.0,79,0.00,,,0.00,WUHU21623XXSP,2013-10-05 07:01:00,
2013-10-05 02:06:00,74.8,68.4,29.92,North,0,0.0,0.0,80,0.00,,,0.00,WUHU21623XXSP,2013-10-05 07:06:00,
2013-10-05 02:11:00,74.7,68.2,29.92,North,0,0.0,0.0,80,0.00,,,0.00,WUHU21623XXSP,2013-10-05 07:11:00,
2013-10-05 02:16:00,74.5,68.0,29.92,North,0,0.0,0.0,80,0.00,,,0.00,WUHU21623XXSP,2013-10-05 07:16:00,
2013-10-05 02:21:00,74.5,68.0,29.92,North,0,0.0,0.0,80,0.00,,,0.00,WUHU21623XXSP,2013-10-05 07:21:00,
2013-10-05 02:26:00,74.3,68.2,29.92,North,0,0.0,0.0,81,0.00,,,0.00,WUHU21623XXSP,2013-10-05 07:26:00,
2013-10-05 02:31:00,74.5,68.3,29.91,North,0,0.0,0.0,81,0.00,,,0.00,WUHU21623XXSP,2013-10-05 07:31:00,
2013-10-05 02:36:00,74.7,68.3,29.91,North,0,0.0,0.0,81,0.00,,,0.00,WUHU21623XXSP,2013-10-05 07:36:00,
2013-10-05 02:41:00,74.8,68.7,29.92,North,0,0.0,0.0,81,0.00,,,0.00,WUHU21623XXSP,2013-10-05 07:41:00,
2013-10-05 02:46:00,74.8,68.7,29.91,North,0,0.0,0.0,81,0.00,,,0.00,WUHU21623XXSP,2013-10-05 07:46:00,
2013-10-05 02:51:00,74.8,68.7,29.91,North,0,0.0,0.0,80,0.00,,,0.00,WUHU21623XXSP,2013-10-05 07:51:00,
2013-10-05 02:56:00,74.7,68.4,29.91,North,0,0.0,0.0,80,0.00,,,0.00,WUHU21623XXSP,2013-10-05 07:56:00,
2013-10-05 03:01:00,74.5,68.3,29.91,North,0,0.0,0.0,81,0.00,,,0.00,WUHU21623XXSP,2013-10-05 08:01:00,
2013-10-05 03:06:00,74.5,68.3,29.90,North,0,0.0,0.0,81,0.00,,,0.00,WUHU21623XXSP,2013-10-05 08:06:00,
2013-10-05 03:11:00,74.5,68.3,29.90,North,0,0.0,0.0,81,0.00,,,0.00,WUHU21623XXSP,2013-10-05 08:11:00,
2013-10-05 03:16:00,74.5,68.3,29.90,North,0,0.0,0.0,81,0.00,,,0.00,WUHU21623XXSP,2013-10-05 08:16:00,
2013-10-05 03:21:00,74.5,68.3,29.90,North,0,0.0,0.0,81,0.00,,,0.00,WUHU21623XXSP,2013-10-05 08:21:00,
2013-10-05 03:26:00,74.5,68.3,29.90,North,0,0.0,0.0,81,0.00,,,0.00,WUHU21623XXSP,2013-10-05 08:26:00,
2013-10-05 03:31:00,74.5,68.3,29.90,North,0,0.0,0.0,81,0.00,,,0.00,WUHU21623XXSP,2013-10-05 08:31:00,
2013-10-05 03:36:00,74.5,68.3,29.90,North,0,0.0,0.0,81,0.00,,,0.00,WUHU21623XXSP,2013-10-05 08:36:00,
2013-10-05 03:41:00,74.5,68.3,29.90,North,0,0.0,0.0,81,0.00,,,0.00,WUHU21623XXSP,2013-10-05 08:41:00,
2013-10-05 03:46:00,74.5,68.3,29.90,North,0,0.0,0.0,81,0.00,,,0.00,WUHU21623XXSP,2013-10-05 08:46:00,
2013-10-05 03:51:00,74.5,68.3,29.90,North,0,0.0,0.0,81,0.00,,,0.00,WUHU21623XXSP,2013-10-05 08:51:00,
2013-10-05 03:56:00,74.3,68.2,29.90,North,0,0.0,0.0,81,0.00,,,0.00,WUHU21623XXSP,2013-10-05 08:56:00,
2013-10-05 04:01:00,74.1,68.0,29.90,North,0,0.0,0.0,81,0.00,,,0.00,WUHU21623XXSP,2013-10-05 09:01:00,
2013-10-05 04:06:00,74.1,68.0,29.90,North,0,0.0,0.0,81,0.00,,,0.00,WUHU21623XXSP,2013-10-05 09:06:00,
2013-10-05 04:11:00,74.3,68.2,29.90,North,0,0.0,0.0,81,0.00,,,0.00,WUHU21623XXSP,2013-10-05 09:11:00,
2013-10-05 04:16:00,74.1,68.0,29.90,North,0,0.0,0.0,81,0.00,,,0.00,WUHU21623XXSP,2013-10-05 09:16:00,
2013-10-05 04:21:00,74.1,68.0,29.90,North,0,0.0,0.0,81,0.00,,,0.00,WUHU21623XXSP,2013-10-05 09:21:00,
2013-10-05 04:26:00,73.9,67.8,29.90,North,0,0.0,0.0,81,0.00,,,0.00,WUHU21623XXSP,2013-10-05 09:26:00,
2013-10-05 04:31:00,73.8,67.6,29.90,North,0,0.0,0.0,81,0.00,,,0.00,WUHU21623XXSP,2013-10-05 09:31:00,
2013-10-05 04:36:00,73.8,68.0,29.89,North,0,0.0,0.0,82,0.00,,,0.00,WUHU21623XXSP,2013-10-05 09:36:00,
2013-10-05 04:41:00,73.6,67.8,29.89,North,0,0.0,0.0,82,0.00,,,0.00,WUHU21623XXSP,2013-10-05 09:41:00,
2013-10-05 04:46:00,73.6,67.4,29.89,North,0,0.0,0.0,81,0.00,,,0.00,WUHU21623XXSP,2013-10-05 09:46:00,
2013-10-05 04:51:00,73.2,67.4,29.89,North,0,0.0,0.0,82,0.00,,,0.00,WUHU21623XXSP,2013-10-05 09:51:00,
2013-10-05 04:56:00,73.0,67.4,29.90,North,0,0.0,0.0,82,0.00,,,0.00,WUHU21623XXSP,2013-10-05 09:56:00,
2013-10-05 05:01:00,73.0,67.2,29.90,North,0,0.0,0.0,82,0.00,,,0.00,WUHU21623XXSP,2013-10-05 10:01:00,
2013-10-05 05:06:00,72.9,67.1,29.90,North,0,0.0,0.0,82,0.00,,,0.00,WUHU21623XXSP,2013-10-05 10:06:00,
2013-10-05 05:11:00,72.7,67.2,29.90,North,0,0.0,0.0,83,0.00,,,0.00,WUHU21623XXSP,2013-10-05 10:11:00,
2013-10-05 05:16:00,72.9,67.4,29.90,North,0,0.0,0.0,83,0.00,,,0.00,WUHU21623XXSP,2013-10-05 10:16:00,
2013-10-05 05:21:00,73.0,67.6,29.90,North,0,0.0,0.0,83,0.00,,,0.00,WUHU21623XXSP,2013-10-05 10:21:00,
2013-10-05 05:26:00,73.0,67.6,29.90,North,0,0.0,0.0,83,0.00,,,0.00,WUHU21623XXSP,2013-10-05 10:26:00,
2013-10-05 05:31:00,73.0,67.6,29.90,North,0,0.0,0.0,83,0.00,,,0.00,WUHU21623XXSP,2013-10-05 10:31:00,
2013-10-05 05:36:00,73.0,67.6,29.91,North,0,0.0,0.0,83,0.00,,,0.00,WUHU21623XXSP,2013-10-05 10:36:00,
2013-10-05 05:41:00,72.7,67.2,29.91,North,0,0.0,0.0,83,0.00,,,0.00,WUHU21623XXSP,2013-10-05 10:41:00,
2013-10-05 05:46:00,72.7,67.2,29.91,North,0,0.0,0.0,83,0.00,,,0.00,WUHU21623XXSP,2013-10-05 10:46:00,
2013-10-05 05:51:00,72.5,67.4,29.92,North,0,0.0,0.0,84,0.00,,,0.00,WUHU21623XXSP,2013-10-05 10:51:00,
2013-10-05 05:56:00,72.3,67.2,29.92,North,0,0.0,0.0,84,0.00,,,0.00,WUHU21623XXSP,2013-10-05 10:56:00,
2013-10-05 06:01:00,72.3,67.2,29.92,North,0,0.0,0.0,84,0.00,,,0.00,WUHU21623XXSP,2013-10-05 11:01:00,
2013-10-05 06:06:00,72.3,67.2,29.92,North,0,0.0,0.0,84,0.00,,,0.00,WUHU21623XXSP,2013-10-05 11:06:00,
2013-10-05 06:11:00,72.3,67.2,29.92,North,0,0.0,0.0,84,0.00,,,0.00,WUHU21623XXSP,2013-10-05 11:11:00,
2013-10-05 06:16:00,72.1,67.0,29.92,North,0,0.0,0.0,84,0.00,,,0.00,WUHU21623XXSP,2013-10-05 11:16:00,
2013-10-05 06:21:00,72.1,67.0,29.92,North,0,0.0,0.0,84,0.00,,,0.00,WUHU21623XXSP,2013-10-05 11:21:00,
2013-10-05 06:26:00,72.1,67.0,29.92,North,0,0.0,0.0,84,0.00,,,0.00,WUHU21623XXSP,2013-10-05 11:26:00,
2013-10-05 06:31:00,72.1,67.0,29.92,North,0,0.0,0.0,84,0.00,,,0.00,WUHU21623XXSP,2013-10-05 11:31:00,
2013-10-05 06:36:00,72.1,67.0,29.92,North,0,0.0,0.0,84,0.00,,,0.00,WUHU21623XXSP,2013-10-05 11:36:00,
2013-10-05 06:41:00,72.1,67.0,29.92,North,0,0.0,0.0,84,0.00,,,0.00,WUHU21623XXSP,2013-10-05 11:41:00,
2013-10-05 06:46:00,72.1,67.0,29.92,North,0,0.0,0.0,84,0.00,,,0.00,WUHU21623XXSP,2013-10-05 11:46:00,
2013-10-05 06:51:00,72.1,67.0,29.93,North,0,0.0,0.0,84,0.00,,,0.00,WUHU21623XXSP,2013-10-05 11:51:00,
2013-10-05 06:56:00,72.3,67.6,29.94,North,0,0.0,0.0,85,0.00,,,0.00,WUHU21623XXSP,2013-10-05 11:56:00,
2013-10-05 07:01:00,72.3,67.6,29.94,North,0,0.0,0.0,85,0.00,,,0.00,WUHU21623XXSP,2013-10-05 12:01:00,
2013-10-05 07:06:00,72.3,67.6,29.94,North,0,0.0,0.0,84,0.00,,,0.00,WUHU21623XXSP,2013-10-05 12:06:00,
2013-10-05 07:11:00,72.3,66.9,29.94,North,0,0.0,0.0,83,0.00,,,0.00,WUHU21623XXSP,2013-10-05 12:11:00,
2013-10-05 07:16:00,72.0,66.7,29.94,North,0,0.0,0.0,83,0.00,,,0.00,WUHU21623XXSP,2013-10-05 12:16:00,
2013-10-05 07:21:00,71.6,66.1,29.94,North,0,0.0,0.0,83,0.00,,,0.00,WUHU21623XXSP,2013-10-05 12:21:00,
2013-10-05 07:26:00,71.1,65.6,29.94,North,0,0.0,0.0,83,0.00,,,0.00,WUHU21623XXSP,2013-10-05 12:26:00,
2013-10-05 07:31:00,70.7,65.4,29.94,North,0,0.0,0.0,83,0.00,,,0.00,WUHU21623XXSP,2013-10-05 12:31:00,
2013-10-05 07:36:00,70.3,65.1,29.94,North,0,0.0,0.0,83,0.00,,,0.00,WUHU21623XXSP,2013-10-05 12:36:00,
2013-10-05 07:41:00,70.0,65.0,29.94,North,0,0.0,0.0,84,0.00,,,0.00,WUHU21623XXSP,2013-10-05 12:41:00,
2013-10-05 07:46:00,70.2,65.0,29.94,North,0,0.0,0.0,84,0.00,,,0.00,WUHU21623XXSP,2013-10-05 12:46:00,
2013-10-05 07:51:00,70.0,65.0,29.94,North,0,0.0,0.0,83,0.00,,,0.00,WUHU21623XXSP,2013-10-05 12:51:00,
2013-10-05 07:57:00,70.0,64.5,29.95,North,0,0.0,0.0,83,0.00,,,0.00,WUHU21623XXSP,2013-10-05 12:57:00,
2013-10-05 08:02:00,70.0,64.5,29.94,North,0,0.0,0.0,83,0.00,,,0.00,WUHU21623XXSP,2013-10-05 13:02:00,
2013-10-05 08:07:00,69.6,63.8,29.95,North,0,0.0,0.0,82,0.00,,,0.00,WUHU21623XXSP,2013-10-05 13:07:00,
2013-10-05 08:12:00,69.1,63.7,29.95,North,0,0.0,0.0,82,0.00,,,0.00,WUHU21623XXSP,2013-10-05 13:12:00,
2013-10-05 08:17:00,68.7,63.3,29.95,North,0,0.0,0.0,82,0.00,,,0.00,WUHU21623XXSP,2013-10-05 13:17:00,
2013-10-05 08:22:00,68.5,62.8,29.95,North,0,0.0,0.0,82,0.00,,,0.00,WUHU21623XXSP,2013-10-05 13:22:00,
2013-10-05 08:27:00,68.4,62.8,29.95,North,0,0.0,0.0,82,0.00,,,0.00,WUHU21623XXSP,2013-10-05 13:27:00,
2013-10-05 08:32:00,68.2,62.5,29.95,North,0,0.0,0.0,82,0.00,,,0.00,WUHU21623XXSP,2013-10-05 13:32:00,
2013-10-05 08:37:00,68.0,62.5,29.95,North,0,0.0,0.0,82,0.00,,,0.00,WUHU21623XXSP,2013-10-05 13:37:00,
2013-10-05 08:42:00,67.8,62.2,29.95,North,0,0.0,0.0,82,0.00,,,0.00,WUHU21623XXSP,2013-10-05 13:42:00,
2013-10-05 08:47:00,67.8,62.5,29.95,North,0,0.0,0.0,83,0.00,,,0.00,WUHU21623XXSP,2013-10-05 13:47:00,
2013-10-05 08:52:00,67.6,62.3,29.94,North,0,0.0,0.0,83,0.00,,,0.00,WUHU21623XXSP,2013-10-05 13:52:00,
2013-10-05 08:57:00,67.3,62.3,29.95,North,0,0.0,0.0,83,0.00,,,0.00,WUHU21623XXSP,2013-10-05 13:57:00,
2013-10-05 09:02:00,67.1,61.8,29.96,North,0,0.0,0.0,83,0.00,,,0.00,WUHU21623XXSP,2013-10-05 14:02:00,
2013-10-05 09:07:00,66.6,61.6,29.94,North,0,0.0,0.0,84,0.00,,,0.00,WUHU21623XXSP,2013-10-05 14:07:00,
2013-10-05 09:12:00,66.6,61.6,29.94,North,0,0.0,0.0,84,0.00,,,0.00,WUHU21623XXSP,2013-10-05 14:12:00,
2013-10-05 09:17:00,66.4,61.7,29.94,North,0,0.0,0.0,85,0.00,,,0.00,WUHU21623XXSP,2013-10-05 14:17:00,
2013-10-05 09:22:00,66.4,61.5,29.94,North,0,0.0,0.0,85,0.00,,,0.00,WUHU21623XXSP,2013-10-05 14:22:00,
2013-10-05 09:27:00,66.0,61.7,29.95,North,0,0.0,0.0,86,0.00,,,0.00,WUHU21623XXSP,2013-10-05 14:27:00,
2013-10-05 09:32:00,66.0,61.7,29.96,North,0,0.0,0.0,86,0.00,,,0.00,WUHU21623XXSP,2013-10-05 14:32:00,
2013-10-05 09:37:00,66.0,61.7,29.96,North,0,0.0,0.0,86,0.00,,,0.00,WUHU21623XXSP,2013-10-05 14:37:00,
2013-10-05 09:42:00,66.0,61.7,29.97,North,0,0.0,0.0,86,0.00,,,0.00,WUHU21623XXSP,2013-10-05 14:42:00,
2013-10-05 09:47:00,66.0,62.0,29.97,North,0,0.0,0.0,87,0.00,,,0.00,WUHU21623XXSP,2013-10-05 14:47:00,
2013-10-05 09:52:00,66.0,62.0,29.97,North,0,0.0,0.0,87,0.00,,,0.00,WUHU21623XXSP,2013-10-05 14:52:00,
2013-10-05 09:57:00,66.0,62.0,29.97,North,0,0.0,0.0,87,0.00,,,0.00,WUHU21623XXSP,2013-10-05 14:57:00,
2013-10-05 10:02:00,66.0,62.0,29.97,North,0,0.0,0.0,87,0.00,,,0.00,WUHU21623XXSP,2013-10-05 15:02:00,
2013-10-05 10:07:00,66.0,62.0,29.97,North,0,0.0,0.0,87,0.00,,,0.00,WUHU21623XXSP,2013-10-05 15:07:00,
2013-10-05 10:12:00,66.0,62.0,29.97,North,0,0.0,0.0,87,0.00,,,0.00,WUHU21623XXSP,2013-10-05 15:12:00,
2013-10-05 10:17:00,66.0,62.0,29.96,North,0,0.0,0.0,87,0.00,,,0.00,WUHU21623XXSP,2013-10-05 15:17:00,
2013-10-05 10:22:00,65.8,61.8,29.95,North,0,0.0,0.0,87,0.00,,,0.00,WUHU21623XXSP,2013-10-05 15:22:00,
2013-10-05 10:27:00,65.7,61.7,29.94,North,0,0.0,0.0,87,0.00,,,0.00,WUHU21623XXSP,2013-10-05 15:27:00,
2013-10-05 10:32:00,65.5,61.5,29.95,North,0,0.0,0.0,87,0.00,,,0.00,WUHU21623XXSP,2013-10-05 15:32:00,
2013-10-05 10:37:00,65.3,61.3,29.94,North,0,0.0,0.0,87,0.00,,,0.00,WUHU21623XXSP,2013-10-05 15:37:00,
2013-10-05 10:42:00,65.1,61.2,29.95,North,0,0.0,0.0,87,0.00,,,0.00,WUHU21623XXSP,2013-10-05 15:42:00,
2013-10-05 10:47:00,64.6,60.7,29.95,North,0,0.0,0.0,87,0.00,,,0.00,WUHU21623XXSP,2013-10-05 15:47:00,
2013-10-05 10:52:00,64.0,59.8,29.95,North,0,0.0,0.0,86,0.00,,,0.00,WUHU21623XXSP,2013-10-05 15:52:00,
2013-10-05 10:57:00,63.7,59.4,29.95,North,0,0.0,0.0,86,0.00,,,0.00,WUHU21623XXSP,2013-10-05 15:57:00,
2013-10-05 11:02:00,63.3,59.1,29.97,North,0,0.0,0.0,86,0.00,,,0.00,WUHU21623XXSP,2013-10-05 16:02:00,
2013-10-05 11:07:00,63.0,58.9,29.97,North,0,0.0,0.0,86,0.00,,,0.00,WUHU21623XXSP,2013-10-05 16:07:00,
2013-10-05 11:12:00,62.8,58.5,29.97,North,0,0.0,0.0,86,0.00,,,0.00,WUHU21623XXSP,2013-10-05 16:12:00,
2013-10-05 11:17:00,62.6,58.0,29.97,North,0,0.0,0.0,85,0.00,,,0.00,WUHU21623XXSP,2013-10-05 16:17:00,
2013-10-05 11:22:00,62.4,57.8,29.97,North,0,0.0,0.0,85,0.00,,,0.00,WUHU21623XXSP,2013-10-05 16:22:00,
2013-10-05 11:27:00,62.2,57.7,29.97,North,0,0.0,0.0,85,0.00,,,0.00,WUHU21623XXSP,2013-10-05 16:27:00,
2013-10-05 11:32:00,61.9,57.3,29.97,North,0,0.0,0.0,85,0.00,,,0.00,WUHU21623XXSP,2013-10-05 16:32:00,
2013-10-05 11:37:00,61.5,57.0,29.98,North,0,0.0,0.0,85,0.00,,,0.00,WUHU21623XXSP,2013-10-05 16:37:00,
2013-10-05 11:42:00,61.0,56.1,29.98,North,0,0.0,0.0,84,0.00,,,0.00,WUHU21623XXSP,2013-10-05 16:42:00,
2013-10-05 11:47:00,60.6,55.8,29.97,North,0,0.0,0.0,84,0.00,,,0.00,WUHU21623XXSP,2013-10-05 16:47:00,
2013-10-05 11:52:00,60.1,55.3,29.97,North,0,0.0,0.0,84,0.00,,,0.00,WUHU21623XXSP,2013-10-05 16:52:00,
2013-10-05 11:57:00,59.9,55.3,29.98,North,0,0.0,0.0,84,0.00,,,0.00,WUHU21623XXSP,2013-10-05 16:57:00,
2013-10-05 12:02:00,59.7,54.9,29.98,North,0,0.0,0.0,84,0.00,,,0.00,WUHU21623XXSP,2013-10-05 17:02:00,
2013-10-05 12:07:00,59.5,54.7,29.99,North,0,0.0,0.0,84,0.00,,,0.00,WUHU21623XXSP,2013-10-05 17:07:00,
2013-10-05 12:12:00,59.4,54.5,29.97,North,0,0.0,0.0,84,0.00,,,0.00,WUHU21623XXSP,2013-10-05 17:12:00,
2013-10-05 12:17:00,59.4,54.5,29.97,North,0,0.0,0.0,84,0.00,,,0.00,WUHU21623XXSP,2013-10-05 17:17:00,
2013-10-05 12:22:00,59.5,54.7,29.97,North,0,0.0,0.0,84,0.00,,,0.00,WUHU21623XXSP,2013-10-05 17:22:00,
2013-10-05 12:27:00,59.5,55.0,29.97,North,0,0.0,0.0,84,0.00,,,0.00,WUHU21623XXSP,2013-10-05 17:27:00,
2013-10-05 12:32:00,59.5,54.5,29.97,North,0,0.0,0.0,84,0.00,,,0.00,WUHU21623XXSP,2013-10-05 17:32:00,
2013-10-05 12:37:00,59.4,54.5,29.97,North,0,0.0,0.0,84,0.00,,,0.00,WUHU21623XXSP,2013-10-05 17:37:00,
2013-10-05 12:42:00,59.4,54.9,29.97,North,0,0.0,0.0,85,0.00,,,0.00,WUHU21623XXSP,2013-10-05 17:42:00,
2013-10-05 12:47:00,59.2,54.7,29.97,North,0,0.0,0.0,84,0.00,,,0.00,WUHU21623XXSP,2013-10-05 17:47:00,
2013-10-05 12:52:00,59.2,54.7,29.96,North,0,0.0,0.0,85,0.00,,,0.00,WUHU21623XXSP,2013-10-05 17:52:00,
2013-10-05 12:57:00,59.2,54.7,29.96,North,0,0.0,0.0,85,0.00,,,0.00,WUHU21623XXSP,2013-10-05 17:57:00,
2013-10-05 13:02:00,59.4,54.9,29.97,North,0,0.0,0.0,85,0.00,,,0.00,WUHU21623XXSP,2013-10-05 18:02:00,
2013-10-05 13:07:00,59.4,54.5,29.95,North,0,0.0,0.0,84,0.00,,,0.00,WUHU21623XXSP,2013-10-05 18:07:00,
2013-10-05 13:12:00,59.4,54.5,29.95,North,0,0.0,0.0,84,0.00,,,0.00,WUHU21623XXSP,2013-10-05 18:12:00,
2013-10-05 13:17:00,59.5,54.7,29.94,North,0,0.0,0.0,84,0.00,,,0.00,WUHU21623XXSP,2013-10-05 18:17:00,
2013-10-05 13:22:00,59.7,54.9,29.95,North,0,0.0,0.0,84,0.00,,,0.00,WUHU21623XXSP,2013-10-05 18:22:00,
2013-10-05 13:27:00,59.5,54.7,29.95,North,0,0.0,0.0,84,0.00,,,0.00,WUHU21623XXSP,2013-10-05 18:27:00,
2013-10-05 13:32:00,59.5,54.7,29.96,North,0,0.0,0.0,84,0.00,,,0.00,WUHU21623XXSP,2013-10-05 18:32:00,
2013-10-05 13:37:00,59.4,54.5,29.96,North,0,0.0,0.0,84,0.00,,,0.00,WUHU21623XXSP,2013-10-05 18:37:00,
2013-10-05 13:42:00,59.2,54.0,29.96,North,0,0.0,0.0,83,0.00,,,0.00,WUHU21623XXSP,2013-10-05 18:42:00,
2013-10-05 13:47:00,58.8,53.7,29.97,North,0,0.0,0.0,83,0.00,,,0.00,WUHU21623XXSP,2013-10-05 18:47:00,
2013-10-05 13:52:00,58.8,53.3,29.95,North,0,0.0,0.0,82,0.00,,,0.00,WUHU21623XXSP,2013-10-05 18:52:00,
2013-10-05 13:57:00,58.8,53.0,29.96,North,0,0.0,0.0,81,0.00,,,0.00,WUHU21623XXSP,2013-10-05 18:57:00,
2013-10-05 14:02:00,58.3,52.5,29.94,North,0,0.0,0.0,81,0.00,,,0.00,WUHU21623XXSP,2013-10-05 19:02:00,
2013-10-05 14:07:00,57.7,52.3,29.93,North,0,0.0,0.0,82,0.00,,,0.00,WUHU21623XXSP,2013-10-05 19:07:00,
2013-10-05 14:12:00,57.4,51.9,29.92,North,0,0.0,0.0,82,0.00,,,0.00,WUHU21623XXSP,2013-10-05 19:12:00,
2013-10-05 14:17:00,57.0,51.9,29.91,North,0,0.0,0.0,83,0.00,,,0.00,WUHU21623XXSP,2013-10-05 19:17:00,
2013-10-05 14:22:00,56.8,51.7,29.92,North,0,0.0,0.0,83,0.00,,,0.00,WUHU21623XXSP,2013-10-05 19:22:00,
2013-10-05 14:27:00,56.5,51.3,29.93,North,0,0.0,0.0,83,0.00,,,0.00,WUHU21623XXSP,2013-10-05 19:27:00,
2013-10-05 14:32:00,55.9,51.0,29.93,North,0,0.0,0.0,84,0.00,,,0.00,WUHU21623XXSP,2013-10-05 19:32:00,
2013-10-05 14:37:00,55.9,51.1,29.94,North,0,0.0,0.0,84,0.00,,,0.00,WUHU21623XXSP,2013-10-05 19:37:00,
2013-10-05 14:42:00,55.9,51.1,29.93,North,0,0.0,0.0,84,0.00,,,0.00,WUHU21623XXSP,2013-10-05 19:42:00,
2013-10-05 14:47:00,55.0,50.2,29.91,North,0,0.0,0.0,84,0.00,,,0.00,WUHU21623XXSP,2013-10-05 19:47:00,
2013-10-05 14:52:00,54.7,50.2,29.93,North,0,0.0,0.0,85,0.00,,,0.00,WUHU21623XXSP,2013-10-05 19:52:00,
2013-10-05 14:57:00,54.3,50.0,29.92,North,0,0.0,0.0,85,0.00,,,0.00,WUHU21623XXSP,2013-10-05 19:57:00,
2013-10-05 15:02:00,54.1,49.7,29.93,North,0,0.0,0.0,85,0.00,,,0.00,WUHU21623XXSP,2013-10-05 20:02:00,
2013-10-05 15:07:00,53.8,49.4,29.93,North,0,0.0,0.0,85,0.00,,,0.00,WUHU21623XXSP,2013-10-05 20:07:00,
2013-10-05 15:12:00,53.8,49.4,29.93,North,0,0.0,0.0,85,0.00,,,0.00,WUHU21623XXSP,2013-10-05 20:12:00,
2013-10-05 15:17:00,54.0,49.5,29.92,North,0,0.0,0.0,85,0.00,,,0.00,WUHU21623XXSP,2013-10-05 20:17:00,
2013-10-05 15:22:00,54.3,50.2,29.93,North,0,0.0,0.0,86,0.00,,,0.00,WUHU21623XXSP,2013-10-05 20:22:00,
2013-10-05 15:27:00,54.1,50.2,29.93,North,0,0.0,0.0,86,0.00,,,0.00,WUHU21623XXSP,2013-10-05 20:27:00,
2013-10-05 15:32:00,54.5,50.2,29.93,North,0,0.0,0.0,86,0.00,,,0.00,WUHU21623XXSP,2013-10-05 20:32:00,
2013-10-05 15:37:00,54.7,50.5,29.93,North,0,0.0,0.0,86,0.00,,,0.00,WUHU21623XXSP,2013-10-05 20:37:00,
2013-10-05 15:42:00,54.7,50.5,29.93,North,0,0.0,0.0,86,0.00,,,0.00,WUHU21623XXSP,2013-10-05 20:42:00,
2013-10-05 15:47:00,54.9,50.7,29.93,North,0,0.0,0.0,86,0.00,,,0.00,WUHU21623XXSP,2013-10-05 20:47:00,
2013-10-05 15:52:00,55.0,50.9,29.93,North,0,0.0,0.0,86,0.00,,,0.00,WUHU21623XXSP,2013-10-05 20:52:00,
2013-10-05 15:57:00,55.0,50.9,29.93,North,0,0.0,0.0,86,0.00,,,0.00,WUHU21623XXSP,2013-10-05 20:57:00,
2013-10-05 16:02:00,55.6,51.4,29.93,North,0,0.0,0.0,87,0.00,,,0.00,WUHU21623XXSP,2013-10-05 21:02:00,
2013-10-05 16:07:00,55.8,51.9,29.92,North,0,0.0,0.0,87,0.00,,,0.00,WUHU21623XXSP,2013-10-05 21:07:00,
2013-10-05 16:12:00,55.8,51.3,29.91,North,0,0.0,0.0,85,0.00,,,0.00,WUHU21623XXSP,2013-10-05 21:12:00,
2013-10-05 16:17:00,55.9,51.1,29.91,North,0,0.0,0.0,84,0.00,,,0.00,WUHU21623XXSP,2013-10-05 21:17:00,
2013-10-05 16:22:00,55.8,50.6,29.91,North,0,0.0,0.0,83,0.00,,,0.00,WUHU21623XXSP,2013-10-05 21:22:00,
2013-10-05 16:27:00,55.6,50.4,29.90,North,0,0.0,0.0,83,0.00,,,0.00,WUHU21623XXSP,2013-10-05 21:27:00,
2013-10-05 16:32:00,55.6,50.1,29.90,North,0,0.0,0.0,82,0.00,,,0.00,WUHU21623XXSP,2013-10-05 21:32:00,
2013-10-05 16:37:00,55.6,50.4,29.91,North,0,0.0,0.0,83,0.00,,,0.00,WUHU21623XXSP,2013-10-05 21:37:00,
2013-10-05 16:42:00,55.6,50.4,29.91,North,0,0.0,0.0,83,0.00,,,0.00,WUHU21623XXSP,2013-10-05 21:42:00,
2013-10-05 16:47:00,55.9,50.8,29.92,North,0,0.0,0.0,83,0.00,,,0.00,WUHU21623XXSP,2013-10-05 21:47:00,
2013-10-05 16:52:00,55.9,50.8,29.92,North,0,0.0,0.0,83,0.00,,,0.00,WUHU21623XXSP,2013-10-05 21:52:00,
2013-10-05 16:57:00,55.9,50.5,29.92,North,0,0.0,0.0,82,0.00,,,0.00,WUHU21623XXSP,2013-10-05 21:57:00,
2013-10-05 17:02:00,56.1,50.6,29.92,North,0,0.0,0.0,82,0.00,,,0.00,WUHU21623XXSP,2013-10-05 22:02:00,
2013-10-05 17:07:00,55.9,50.5,29.92,North,0,0.0,0.0,82,0.00,,,0.00,WUHU21623XXSP,2013-10-05 22:07:00,
2013-10-05 17:12:00,56.1,50.6,29.93,North,0,0.0,0.0,82,0.00,,,0.00,WUHU21623XXSP,2013-10-05 22:12:00,
2013-10-05 17:17:00,56.1,50.6,29.93,North,0,0.0,0.0,82,0.00,,,0.00,WUHU21623XXSP,2013-10-05 22:17:00,
2013-10-05 17:22:00,56.1,50.6,29.92,North,0,0.0,0.0,82,0.00,,,0.00,WUHU21623XXSP,2013-10-05 22:22:00,
2013-10-05 17:27:00,56.3,50.8,29.92,North,0,0.0,0.0,82,0.00,,,0.00,WUHU21623XXSP,2013-10-05 22:27:00,
2013-10-05 17:32:00,56.5,51.0,29.92,North,0,0.0,0.0,82,0.00,,,0.00,WUHU21623XXSP,2013-10-05 22:32:00,
2013-10-05 17:37:00,56.5,51.0,29.92,North,0,0.0,0.0,82,0.00,,,0.00,WUHU21623XXSP,2013-10-05 22:37:00,
2013-10-05 17:42:00,56.7,51.2,29.93,North,0,0.0,0.0,82,0.00,,,0.00,WUHU21623XXSP,2013-10-05 22:42:00,
2013-10-05 17:47:00,56.5,50.7,29.94,North,0,0.0,0.0,81,0.00,,,0.00,WUHU21623XXSP,2013-10-05 22:47:00,
2013-10-05 17:52:00,56.3,50.5,29.94,North,0,0.0,0.0,81,0.00,,,0.00,WUHU21623XXSP,2013-10-05 22:52:00,
2013-10-05 17:57:00,56.1,50.6,29.93,North,0,0.0,0.0,82,0.00,,,0.00,WUHU21623XXSP,2013-10-05 22:57:00,
2013-10-05 18:02:00,55.9,50.5,29.93,North,0,0.0,0.0,82,0.00,,,0.00,WUHU21623XXSP,2013-10-05 23:02:00,
2013-10-05 18:07:00,55.9,50.5,29.92,North,0,0.0,0.0,82,0.00,,,0.00,WUHU21623XXSP,2013-10-05 23:07:00,
2013-10-05 18:12:00,55.8,50.3,29.93,North,0,0.0,0.0,82,0.00,,,0.00,WUHU21623XXSP,2013-10-05 23:12:00,
2013-10-05 18:17:00,55.8,50.3,29.93,North,0,0.0,0.0,82,0.00,,,0.00,WUHU21623XXSP,2013-10-05 23:17:00,
2013-10-05 18:22:00,55.6,50.3,29.93,North,0,0.0,0.0,82,0.00,,,0.00,WUHU21623XXSP,2013-10-05 23:22:00,
2013-10-05 18:27:00,55.8,50.6,29.93,North,0,0.0,0.0,83,0.00,,,0.00,WUHU21623XXSP,2013-10-05 23:27:00,
2013-10-05 18:33:00,55.4,50.3,29.93,North,0,0.0,0.0,83,0.00,,,0.00,WUHU21623XXSP,2013-10-05 23:33:00,
2013-10-05 18:38:00,55.4,50.3,29.93,North,0,0.0,0.0,83,0.00,,,0.00,WUHU21623XXSP,2013-10-05 23:38:00,
2013-10-05 18:43:00,55.2,50.1,29.93,North,0,0.0,0.0,83,0.00,,,0.00,WUHU21623XXSP,2013-10-05 23:43:00,
2013-10-05 18:48:00,55.2,50.4,29.94,North,0,0.0,0.0,84,0.00,,,0.00,WUHU21623XXSP,2013-10-05 23:48:00,
2013-10-05 18:53:00,55.2,50.4,29.94,North,0,0.0,0.0,84,0.00,,,0.00,WUHU21623XXSP,2013-10-05 23:53:00,
2013-10-05 18:58:00,55.2,50.4,29.94,North,0,0.0,0.0,84,0.00,,,0.00,WUHU21623XXSP,2013-10-05 23:58:00,
2013-10-05 19:03:00,55.0,50.2,29.93,North,0,0.0,0.0,84,0.00,,,0.00,WUHU21623XXSP,2013-10-06 00:03:00,
2013-10-05 19:08:00,55.0,50.2,29.93,North,0,0.0,0.0,84,0.00,,,0.00,WUHU21623XXSP,2013-10-06 00:08:00,
2013-10-05 19:13:00,54.9,50.1,29.94,North,0,0.0,0.0,84,0.00,,,0.00,WUHU21623XXSP,2013-10-06 00:13:00,
2013-10-05 19:18:00,54.7,49.9,29.93,North,0,0.0,0.0,84,0.00,,,0.00,WUHU21623XXSP,2013-10-06 00:18:00,
2013-10-05 19:23:00,54.7,49.9,29.93,North,0,0.0,0.0,84,0.00,,,0.00,WUHU21623XXSP,2013-10-06 00:23:00,
2013-10-05 19:28:00,54.5,49.7,29.94,North,0,0.0,0.0,84,0.00,,,0.00,WUHU21623XXSP,2013-10-06 00:28:00,
2013-10-05 19:33:00,54.3,49.9,29.94,North,0,0.0,0.0,85,0.00,,,0.00,WUHU21623XXSP,2013-10-06 00:33:00,
2013-10-05 19:38:00,54.3,49.9,29.94,North,0,0.0,0.0,85,0.00,,,0.00,WUHU21623XXSP,2013-10-06 00:38:00,
2013-10-05 19:43:00,54.1,49.7,29.94,North,0,0.0,0.0,85,0.00,,,0.00,WUHU21623XXSP,2013-10-06 00:43:00,
2013-10-05 19:48:00,54.1,49.7,29.94,North,0,0.0,0.0,85,0.00,,,0.00,WUHU21623XXSP,2013-10-06 00:48:00,
2013-10-05 19:53:00,54.1,49.7,29.94,North,0,0.0,0.0,85,0.00,,,0.00,WUHU21623XXSP,2013-10-06 00:53:00,
2013-10-05 19:58:00,54.0,49.5,29.94,North,0,0.0,0.0,85,0.00,,,0.00,WUHU21623XXSP,2013-10-06 00:58:00,
2013-10-05 20:03:00,54.0,49.5,29.94,North,0,0.0,0.0,85,0.00,,,0.00,WUHU21623XXSP,2013-10-06 01:03:00,
2013-10-05 20:08:00,53.8,49.8,29.94,North,0,0.0,0.0,86,0.00,,,0.00,WUHU21623XXSP,2013-10-06 01:08:00,
2013-10-05 20:13:00,53.8,49.7,29.95,North,0,0.0,0.0,86,0.00,,,0.00,WUHU21623XXSP,2013-10-06 01:13:00,
2013-10-05 20:18:00,53.8,49.7,29.94,North,0,0.0,0.0,86,0.00,,,0.00,WUHU21623XXSP,2013-10-06 01:18:00,
2013-10-05 20:23:00,53.6,49.5,29.94,North,0,0.0,0.0,86,0.00,,,0.00,WUHU21623XXSP,2013-10-06 01:23:00,
2013-10-05 20:28:00,53.4,49.5,29.95,North,0,0.0,0.0,86,0.00,,,0.00,WUHU21623XXSP,2013-10-06 01:28:00,
2013-10-05 20:33:00,53.4,49.3,29.95,North,0,0.0,0.0,86,0.00,,,0.00,WUHU21623XXSP,2013-10-06 01:33:00,
2013-10-05 20:38:00,53.4,49.3,29.95,North,0,0.0,0.0,86,0.00,,,0.00,WUHU21623XXSP,2013-10-06 01:38:00,
2013-10-05 20:43:00,53.4,49.6,29.95,North,0,0.0,0.0,87,0.00,,,0.00,WUHU21623XXSP,2013-10-06 01:43:00,
2013-10-05 20:48:00,53.2,49.4,29.95,North,0,0.0,0.0,87,0.00,,,0.00,WUHU21623XXSP,2013-10-06 01:48:00,
2013-10-05 20:53:00,53.2,49.4,29.94,North,0,0.0,0.0,87,0.00,,,0.00,WUHU21623XXSP,2013-10-06 01:53:00,
2013-10-05 20:58:00,53.2,49.1,29.94,North,0,0.0,0.0,86,0.00,,,0.00,WUHU21623XXSP,2013-10-06 01:58:00,
2013-10-05 21:03:00,52.9,48.8,29.94,North,0,0.0,0.0,86,0.00,,,0.00,WUHU21623XXSP,2013-10-06 02:03:00,
2013-10-05 21:08:00,52.9,49.1,29.94,North,0,0.0,0.0,87,0.00,,,0.00,WUHU21623XXSP,2013-10-06 02:08:00,
2013-10-05 21:13:00,52.9,49.1,29.94,North,0,0.0,0.0,87,0.00,,,0.00,WUHU21623XXSP,2013-10-06 02:13:00,
2013-10-05 21:18:00,52.7,48.9,29.94,North,0,0.0,0.0,87,0.00,,,0.00,WUHU21623XXSP,2013-10-06 02:18:00,
2013-10-05 21:23:00,52.5,48.7,29.94,North,0,0.0,0.0,87,0.00,,,0.00,WUHU21623XXSP,2013-10-06 02:23:00,
2013-10-05 21:28:00,52.5,48.7,29.94,North,0,0.0,0.0,87,0.00,,,0.00,WUHU21623XXSP,2013-10-06 02:28:00,
2013-10-05 21:33:00,52.5,48.7,29.95,North,0,0.0,0.0,87,0.00,,,0.00,WUHU21623XXSP,2013-10-06 02:33:00,
2013-10-05 21:38:00,52.5,48.7,29.95,North,0,0.0,0.0,87,0.00,,,0.00,WUHU21623XXSP,2013-10-06 02:38:00,
2013-10-05 21:43:00,52.5,48.7,29.95,North,0,0.0,0.0,88,0.00,,,0.00,WUHU21623XXSP,2013-10-06 02:43:00,
2013-10-05 21:48:00,52.3,49.0,29.96,North,0,0.0,0.0,88,0.00,,,0.00,WUHU21623XXSP,2013-10-06 02:48:00,
2013-10-05 21:53:00,52.3,48.8,29.95,North,0,0.0,0.0,88,0.00,,,0.00,WUHU21623XXSP,2013-10-06 02:53:00,
2013-10-05 21:58:00,52.3,48.8,29.96,North,0,0.0,0.0,88,0.00,,,0.00,WUHU21623XXSP,2013-10-06 02:58:00,
2013-10-05 22:03:00,52.3,48.8,29.96,North,0,0.0,0.0,88,0.00,,,0.00,WUHU21623XXSP,2013-10-06 03:03:00,
2013-10-05 22:08:00,52.3,48.8,29.96,North,0,0.0,0.0,88,0.00,,,0.00,WUHU21623XXSP,2013-10-06 03:08:00,
2013-10-05 22:13:00,52.3,48.8,29.95,North,0,0.0,0.0,88,0.00,,,0.00,WUHU21623XXSP,2013-10-06 03:13:00,
2013-10-05 22:18:00,52.3,48.8,29.95,North,0,0.0,0.0,88,0.00,,,0.00,WUHU21623XXSP,2013-10-06 03:18:00,
2013-10-05 22:23:00,52.3,48.8,29.95,North,0,0.0,0.0,88,0.00,,,0.00,WUHU21623XXSP,2013-10-06 03:23:00,
2013-10-05 22:28:00,52.3,48.8,29.95,North,0,0.0,0.0,88,0.00,,,0.00,WUHU21623XXSP,2013-10-06 03:28:00,
2013-10-05 22:33:00,52.3,48.8,29.94,North,0,0.0,0.0,88,0.00,,,0.00,WUHU21623XXSP,2013-10-06 03:33:00,
2013-10-05 22:38:00,52.3,48.8,29.94,North,0,0.0,0.0,88,0.00,,,0.00,WUHU21623XXSP,2013-10-06 03:38:00,
2013-10-05 22:43:00,52.3,48.8,29.95,North,0,0.0,0.0,88,0.00,,,0.00,WUHU21623XXSP,2013-10-06 03:43:00,
2013-10-05 22:48:00,52.2,49.2,29.94,North,0,0.0,0.0,89,0.00,,,0.00,WUHU21623XXSP,2013-10-06 03:48:00,
2013-10-05 22:53:00,52.2,49.0,29.94,North,0,0.0,0.0,89,0.00,,,0.00,WUHU21623XXSP,2013-10-06 03:53:00,
2013-10-05 22:58:00,52.2,49.0,29.94,North,0,0.0,0.0,89,0.00,,,0.00,WUHU21623XXSP,2013-10-06 03:58:00,
2013-10-05 23:03:00,52.0,48.8,29.94,North,0,0.0,0.0,89,0.00,,,0.00,WUHU21623XXSP,2013-10-06 04:03:00,
2013-10-05 23:05:00,52.0,48.8,29.93,North,0,0.0,0.0,89,0.00,,,0.00,WUHU21623XXSP,2013-10-06 04:05:00,
2013-10-05 23:08:00,52.0,48.8,29.94,North,0,0.0,0.0,89,0.00,,,0.00,WUHU21623XXSP,2013-10-06 04:08:00,
2013-10-05 23:13:00,52.0,48.8,29.93,North,0,0.0,0.0,89,0.00,,,0.00,WUHU21623XXSP,2013-10-06 04:13:00,
2013-10-05 23:18:00,51.6,48.4,29.92,North,0,0.0,0.0,89,0.00,,,0.00,WUHU21623XXSP,2013-10-06 04:18:00,
2013-10-05 23:20:00,51.6,48.1,29.93,North,0,0.0,0.0,88,0.00,,,0.00,WUHU21623XXSP,2013-10-06 04:20:00,
2013-10-05 23:25:00,51.6,48.1,29.93,North,0,0.0,0.0,88,0.00,,,0.00,WUHU21623XXSP,2013-10-06 04:25:00,
2013-10-05 23:30:00,51.4,48.1,29.93,North,0,0.0,0.0,88,0.00,,,0.00,WUHU21623XXSP,2013-10-06 04:30:00,
2013-10-05 23:35:00,51.4,47.9,29.92,North,0,0.0,0.0,88,0.00,,,0.00,WUHU21623XXSP,2013-10-06 04:35:00,
2013-10-05 23:40:00,51.3,47.9,29.92,North,0,0.0,0.0,88,0.00,,,0.00,WUHU21623XXSP,2013-10-06 04:40:00,
2013-10-05 23:45:00,51.1,47.6,29.92,North,0,0.0,0.0,88,0.00,,,0.00,WUHU21623XXSP,2013-10-06 04:45:00,
2013-10-05 23:50:00,51.1,47.6,29.91,North,0,0.0,0.0,88,0.00,,,0.00,WUHU21623XXSP,2013-10-06 04:50:00,
2013-10-05 23:55:00,50.9,47.7,29.91,North,0,0.0,0.0,89,0.00,,,0.00,WUHU21623XXSP,2013-10-06 04:55:00,